createdAt,value
2019-06-15T00:00:36.126Z,99923.97
2019-06-15T00:03:04.080Z,99918.41
2019-06-15T00:05:31.162Z,99911.56
2019-06-15T00:07:58.362Z,99912.34
2019-06-15T00:10:25.564Z,99916.27
2019-06-15T00:12:52.712Z,99917.45
2019-06-15T00:15:20.020Z,99922.03
2019-06-15T00:17:47.250Z,99919.77
2019-06-15T00:20:14.594Z,99925.85
2019-06-15T00:22:41.740Z,99932.54
2019-06-15T00:25:09.176Z,99925.41
2019-06-15T00:27:36.248Z,99934.09
2019-06-15T00:30:04.201Z,99937.78
2019-06-15T00:32:31.512Z,99932.94
2019-06-15T00:34:58.688Z,99929.09
2019-06-15T00:37:25.869Z,99925.58
2019-06-15T00:39:53.144Z,99917.41
2019-06-15T00:42:20.907Z,99910.11
2019-06-15T00:44:48.089Z,99910.60
2019-06-15T00:47:15.289Z,99913.09
2019-06-15T00:49:42.568Z,99916.56
2019-06-15T00:52:09.756Z,99909.79
2019-06-15T00:54:49.701Z,99914.97
2019-06-15T00:57:06.004Z,99920.96
2019-06-15T00:59:33.308Z,99916.55
2019-06-15T01:02:00.828Z,99907.77
2019-06-15T01:04:28.225Z,99898.98
2019-06-15T01:06:55.428Z,99892.52
2019-06-15T01:09:22.505Z,99886.72
2019-06-15T01:11:49.659Z,99877.13
2019-06-15T01:14:17.050Z,99877.98
2019-06-15T01:16:44.272Z,99868.61
2019-06-15T01:19:11.447Z,99864.34
2019-06-15T01:21:38.660Z,99852.08
2019-06-15T01:24:06.278Z,99849.30
2019-06-15T01:26:33.431Z,99850.91
2019-06-15T01:29:00.620Z,99841.84
2019-06-15T01:31:28.435Z,99833.73
2019-06-15T01:33:55.606Z,99828.45
2019-06-15T01:36:22.792Z,99823.30
2019-06-15T01:38:50.112Z,99817.03
2019-06-15T01:41:17.179Z,99818.27
2019-06-15T01:43:44.967Z,99816.47
2019-06-15T01:46:12.138Z,99812.09
2019-06-15T01:48:39.288Z,99815.16
2019-06-15T01:51:06.362Z,99810.36
2019-06-15T01:53:33.584Z,99810.94
2019-06-15T01:56:00.787Z,99812.42
2019-06-15T01:58:28.409Z,99818.33
2019-06-15T02:00:55.592Z,99823.75
2019-06-15T02:03:23.109Z,99827.17
2019-06-15T02:05:50.262Z,99823.27
2019-06-15T02:08:18.929Z,99819.50
2019-06-15T02:10:46.168Z,99826.69
2019-06-15T02:13:13.415Z,99829.36
2019-06-15T02:15:40.709Z,99828.72
2019-06-15T02:18:07.899Z,99829.23
2019-06-15T02:20:35.129Z,99828.39
2019-06-15T02:23:02.528Z,99822.23
2019-06-15T02:25:35.930Z,99813.30
2019-06-15T02:27:59.034Z,99821.62
2019-06-15T02:30:27.910Z,99816.83
2019-06-15T02:32:56.181Z,99807.89
2019-06-15T02:35:23.363Z,99811.27
2019-06-15T02:37:50.571Z,99816.58
2019-06-15T02:40:18.254Z,99817.91
2019-06-15T02:42:45.782Z,99808.95
2019-06-15T02:45:12.967Z,99812.78
2019-06-15T02:47:40.053Z,99802.80
2019-06-15T02:50:07.233Z,99799.79
2019-06-15T02:52:34.441Z,99797.84
2019-06-15T02:55:01.644Z,99798.48
2019-06-15T02:57:29.315Z,99804.48
2019-06-15T02:59:56.802Z,99805.67
2019-06-15T03:02:24.195Z,99809.17
2019-06-15T03:04:51.726Z,99813.67
2019-06-15T03:07:18.927Z,99808.02
2019-06-15T03:09:46.486Z,99820.81
2019-06-15T03:12:14.156Z,99809.02
2019-06-15T03:14:42.326Z,99805.72
2019-06-15T03:17:09.484Z,99804.88
2019-06-15T03:19:36.700Z,99814.31
2019-06-15T03:22:06.495Z,99814.78
2019-06-15T03:24:33.035Z,99813.45
2019-06-15T03:27:00.219Z,99810.80
2019-06-15T03:29:27.530Z,99822.59
2019-06-15T03:31:54.688Z,99822.22
2019-06-15T03:34:21.864Z,99832.13
2019-06-15T03:36:49.086Z,99822.75
2019-06-15T03:39:16.244Z,99829.52
2019-06-15T03:41:43.423Z,99833.45
2019-06-15T03:44:10.939Z,99846.84
2019-06-15T03:46:38.279Z,99850.74
2019-06-15T03:49:05.833Z,99855.31
2019-06-15T03:51:33.042Z,99863.37
2019-06-15T03:54:00.532Z,99864.73
2019-06-15T03:56:27.608Z,99865.98
2019-06-15T03:58:54.787Z,99870.95
2019-06-15T04:01:35.230Z,99870.55
2019-06-15T04:04:02.732Z,99871.08
2019-06-15T04:06:29.939Z,99887.60
2019-06-15T04:08:57.124Z,99888.62
2019-06-15T04:11:24.445Z,99897.37
2019-06-15T04:13:51.634Z,99899.80
2019-06-15T04:16:19.112Z,99912.91
2019-06-15T04:18:46.319Z,99923.86
2019-06-15T04:21:13.480Z,99930.05
2019-06-15T04:23:40.680Z,99930.59
2019-06-15T04:26:07.866Z,99940.75
2019-06-15T04:28:35.065Z,99941.70
2019-06-15T04:31:02.274Z,99955.77
2019-06-15T04:33:29.456Z,99969.32
2019-06-15T04:35:56.508Z,99982.34
2019-06-15T04:38:23.950Z,99976.31
2019-06-15T04:40:51.129Z,99973.98
2019-06-15T04:43:18.272Z,99976.46
2019-06-15T04:45:45.547Z,99980.73
2019-06-15T04:48:12.838Z,99985.20
2019-06-15T04:50:39.970Z,99987.70
2019-06-15T04:53:07.120Z,99988.87
2019-06-15T04:55:34.643Z,99984.30
2019-06-15T04:58:01.804Z,99988.34
2019-06-15T05:00:29.075Z,99989.61
2019-06-15T05:02:56.287Z,99990.88
2019-06-15T05:05:23.464Z,99989.44
2019-06-15T05:07:50.624Z,99994.45
2019-06-15T05:10:17.862Z,99975.41
2019-06-15T05:12:45.028Z,99985.92
2019-06-15T05:15:12.224Z,99981.95
2019-06-15T05:17:39.313Z,99982.09
2019-06-15T05:20:07.078Z,99984.14
2019-06-15T05:22:34.332Z,99995.19
2019-06-15T05:25:01.470Z,99987.02
2019-06-15T05:27:28.636Z,99978.25
2019-06-15T05:29:56.655Z,99991.28
2019-06-15T05:32:24.462Z,99994.20
2019-06-15T05:34:52.556Z,99999.92
2019-06-15T05:37:19.849Z,100006.80
2019-06-15T05:39:47.037Z,100003.25
2019-06-15T05:42:15.286Z,100007.08
2019-06-15T05:44:42.498Z,100011.78
2019-06-15T05:47:09.708Z,100030.23
2019-06-15T05:49:36.980Z,100032.09
2019-06-15T05:52:04.192Z,100036.08
2019-06-15T05:54:31.397Z,100058.78
2019-06-15T05:56:58.576Z,100068.69
2019-06-15T05:59:26.234Z,100087.41
2019-06-15T06:01:53.361Z,100094.11
2019-06-15T06:04:20.593Z,100107.39
2019-06-15T06:06:47.872Z,100103.06
2019-06-15T06:09:15.182Z,100107.72
2019-06-15T06:11:43.487Z,100101.33
2019-06-15T06:14:11.785Z,100099.33
2019-06-15T06:16:39.040Z,100109.66
2019-06-15T06:19:06.411Z,100109.82
2019-06-15T06:21:33.846Z,100118.33
2019-06-15T06:24:01.080Z,100118.06
2019-06-15T06:26:28.431Z,100120.75
2019-06-15T06:28:57.519Z,100116.80
2019-06-15T06:31:24.750Z,100116.91
2019-06-15T06:33:51.999Z,100120.16
2019-06-15T06:36:19.179Z,100117.08
2019-06-15T06:38:46.688Z,100111.42
2019-06-15T06:41:13.845Z,100123.31
2019-06-15T06:43:41.039Z,100124.66
2019-06-15T06:46:08.249Z,100124.92
2019-06-15T06:48:35.452Z,100132.70
2019-06-15T06:51:02.577Z,100138.39
2019-06-15T06:53:29.919Z,100152.00
2019-06-15T06:55:57.139Z,100150.49
2019-06-15T06:58:24.320Z,100152.94
2019-06-15T07:00:51.512Z,100166.14
2019-06-15T07:03:18.857Z,100160.34
2019-06-15T07:05:45.913Z,100154.20
2019-06-15T07:08:13.873Z,100147.77
2019-06-15T07:10:41.071Z,100147.30
2019-06-15T07:13:08.248Z,100155.89
2019-06-15T07:15:35.876Z,100175.78
2019-06-15T07:18:02.932Z,100184.73
2019-06-15T07:20:30.021Z,100189.61
2019-06-15T07:22:57.211Z,100199.08
2019-06-15T07:25:24.681Z,100207.77
2019-06-15T07:28:06.945Z,100212.28
2019-06-15T07:30:21.056Z,100214.16
2019-06-15T07:32:48.205Z,100224.74
2019-06-15T07:35:15.589Z,100219.38
2019-06-15T07:37:42.893Z,100228.09
2019-06-15T07:40:10.595Z,100215.14
2019-06-15T07:42:39.458Z,100222.42
2019-06-15T07:45:07.499Z,100227.81
2019-06-15T07:47:34.706Z,100227.63
2019-06-15T07:50:01.982Z,100215.58
2019-06-15T07:52:29.458Z,100215.77
2019-06-15T07:54:56.627Z,100228.38
2019-06-15T07:57:23.819Z,100211.45
2019-06-15T07:59:51.480Z,100222.44
2019-06-15T08:02:18.672Z,100221.67
2019-06-15T08:04:45.896Z,100232.11
2019-06-15T08:07:13.182Z,100231.65
2019-06-15T08:09:40.708Z,100241.17
2019-06-15T08:12:07.857Z,100246.77
2019-06-15T08:14:35.092Z,100246.77
2019-06-15T08:17:02.360Z,100250.22
2019-06-15T08:19:29.559Z,100241.81
2019-06-15T08:21:56.938Z,100258.11
2019-06-15T08:24:24.136Z,100257.23
2019-06-15T08:26:51.500Z,100265.27
2019-06-15T08:29:18.706Z,100258.33
2019-06-15T08:31:45.998Z,100260.64
2019-06-15T08:34:13.175Z,100257.03
2019-06-15T08:36:41.118Z,100264.87
2019-06-15T08:39:08.279Z,100264.98
2019-06-15T08:41:35.462Z,100268.88
2019-06-15T08:44:03.484Z,100278.41
2019-06-15T08:46:30.754Z,100291.71
2019-06-15T08:48:58.047Z,100291.74
2019-06-15T08:51:25.402Z,100308.04
2019-06-15T08:53:52.613Z,100317.09
2019-06-15T08:56:19.830Z,100305.20
2019-06-15T08:58:55.497Z,100312.75
2019-06-15T09:01:16.618Z,100320.72
2019-06-15T09:03:44.264Z,100319.10
2019-06-15T09:06:11.532Z,100324.03
2019-06-15T09:08:38.891Z,100322.54
2019-06-15T09:11:06.096Z,100318.77
2019-06-15T09:13:33.579Z,100326.02
2019-06-15T09:16:00.896Z,100332.59
2019-06-15T09:18:28.095Z,100325.88
2019-06-15T09:20:55.302Z,100340.40
2019-06-15T09:23:22.702Z,100343.05
2019-06-15T09:25:49.924Z,100334.56
2019-06-15T09:28:17.403Z,100338.50
2019-06-15T09:30:45.172Z,100344.61
2019-06-15T09:33:12.498Z,100335.37
2019-06-15T09:35:39.696Z,100344.27
2019-06-15T09:38:06.905Z,100335.26
2019-06-15T09:40:34.245Z,100343.97
2019-06-15T09:43:01.628Z,100344.71
2019-06-15T09:45:32.781Z,100351.06
2019-06-15T09:47:58.271Z,100348.39
2019-06-15T09:50:25.470Z,100351.14
2019-06-15T09:52:52.675Z,100349.97
2019-06-15T09:55:20.117Z,100355.22
2019-06-15T09:57:47.716Z,100355.88
2019-06-15T10:00:14.990Z,100357.56
2019-06-15T10:02:42.528Z,100367.06
2019-06-15T10:05:10.126Z,100367.47
2019-06-15T10:07:37.766Z,100381.95
2019-06-15T10:10:05.805Z,100382.48
2019-06-15T10:12:33.092Z,100373.17
2019-06-15T10:15:00.331Z,100372.91
2019-06-15T10:17:27.414Z,100388.20
2019-06-15T10:19:54.650Z,100390.99
2019-06-15T10:22:21.805Z,100387.23
2019-06-15T10:24:49.042Z,100395.10
2019-06-15T10:27:16.371Z,100401.94
2019-06-15T10:29:43.458Z,100397.39
2019-06-15T10:32:10.658Z,100405.30
2019-06-15T10:34:37.877Z,100404.29
2019-06-15T10:37:05.184Z,100400.52
2019-06-15T10:39:32.480Z,100403.10
2019-06-15T10:42:00.024Z,100411.27
2019-06-15T10:44:27.801Z,100412.12
2019-06-15T10:46:55.151Z,100421.73
2019-06-15T10:49:22.789Z,100429.86
2019-06-15T10:51:49.980Z,100428.75
2019-06-15T10:54:17.544Z,100431.93
2019-06-15T10:56:45.322Z,100421.13
2019-06-15T10:59:15.999Z,100430.80
2019-06-15T11:01:43.267Z,100435.62
2019-06-15T11:04:10.456Z,100434.56
2019-06-15T11:06:37.751Z,100446.64
2019-06-15T11:09:07.429Z,100442.17
2019-06-15T11:11:34.720Z,100444.29
2019-06-15T11:14:02.149Z,100442.52
2019-06-15T11:16:29.391Z,100441.19
2019-06-15T11:18:56.580Z,100432.33
2019-06-15T11:21:23.737Z,100432.95
2019-06-15T11:23:50.971Z,100435.85
2019-06-15T11:26:18.165Z,100434.76
2019-06-15T11:28:45.553Z,100444.25
2019-06-15T11:31:12.720Z,100441.78
2019-06-15T11:33:40.031Z,100443.23
2019-06-15T11:36:07.194Z,100450.25
2019-06-15T11:38:34.389Z,100448.95
2019-06-15T11:41:02.294Z,100442.09
2019-06-15T11:43:29.524Z,100437.80
2019-06-15T11:45:56.952Z,100437.34
2019-06-15T11:48:24.555Z,100435.61
2019-06-15T11:50:51.574Z,100432.25
2019-06-15T11:53:18.836Z,100434.50
2019-06-15T11:55:46.602Z,100432.08
2019-06-15T11:58:13.801Z,100438.14
2019-06-15T12:00:40.958Z,100449.81
2019-06-15T12:03:08.288Z,100454.66
2019-06-15T12:05:35.488Z,100463.90
2019-06-15T12:08:02.836Z,100442.58
2019-06-15T12:10:30.328Z,100454.98
2019-06-15T12:12:57.516Z,100443.63
2019-06-15T12:15:24.863Z,100440.95
2019-06-15T12:17:52.155Z,100436.59
2019-06-15T12:20:19.403Z,100433.59
2019-06-15T12:22:47.363Z,100441.52
2019-06-15T12:25:15.213Z,100445.84
2019-06-15T12:27:42.452Z,100443.91
2019-06-15T12:30:11.853Z,100446.30
2019-06-15T12:32:39.114Z,100441.28
2019-06-15T12:35:06.806Z,100446.92
2019-06-15T12:37:34.418Z,100441.23
2019-06-15T12:40:01.743Z,100440.58
2019-06-15T12:42:29.057Z,100445.69
2019-06-15T12:44:56.355Z,100445.21
2019-06-15T12:47:23.976Z,100447.22
2019-06-15T12:49:51.309Z,100440.69
2019-06-15T12:52:18.506Z,100449.02
2019-06-15T12:54:45.706Z,100455.67
2019-06-15T12:57:12.864Z,100454.05
2019-06-15T12:59:40.595Z,100454.05
2019-06-15T13:02:07.868Z,100453.69
2019-06-15T13:04:35.039Z,100451.77
2019-06-15T13:07:02.308Z,100437.91
2019-06-15T13:09:29.402Z,100446.76
2019-06-15T13:11:56.651Z,100446.34
2019-06-15T13:14:23.849Z,100444.95
2019-06-15T13:16:51.538Z,100442.83
2019-06-15T13:19:19.432Z,100443.84
2019-06-15T13:21:46.752Z,100437.72
2019-06-15T13:24:14.497Z,100447.59
2019-06-15T13:26:41.663Z,100440.03
2019-06-15T13:29:08.922Z,100443.00
2019-06-15T13:31:36.630Z,100454.55
2019-06-15T13:34:04.003Z,100452.16
2019-06-15T13:36:31.268Z,100449.88
2019-06-15T13:38:58.482Z,100445.73
2019-06-15T13:41:25.746Z,100442.09
2019-06-15T13:43:52.910Z,100438.43
2019-06-15T13:46:21.127Z,100451.05
2019-06-15T13:48:48.412Z,100442.95
2019-06-15T13:51:15.981Z,100451.71
2019-06-15T13:53:43.237Z,100449.68
2019-06-15T13:56:10.524Z,100450.13
2019-06-15T13:58:37.694Z,100448.00
2019-06-15T14:01:04.930Z,100450.81
2019-06-15T14:03:32.085Z,100453.16
2019-06-15T14:05:59.304Z,100457.92
2019-06-15T14:08:26.548Z,100460.09
2019-06-15T14:10:53.924Z,100463.56
2019-06-15T14:13:21.434Z,100458.22
2019-06-15T14:15:48.748Z,100458.20
2019-06-15T14:18:15.934Z,100461.50
2019-06-15T14:20:43.310Z,100458.58
2019-06-15T14:23:10.575Z,100453.66
2019-06-15T14:25:38.674Z,100455.02
2019-06-15T14:28:05.885Z,100451.83
2019-06-15T14:30:33.277Z,100454.16
2019-06-15T14:33:00.471Z,100445.56
2019-06-15T14:35:27.962Z,100432.63
2019-06-15T14:37:55.088Z,100445.23
2019-06-15T14:40:22.599Z,100457.25
2019-06-15T14:42:49.829Z,100455.61
2019-06-15T14:45:17.518Z,100455.42
2019-06-15T14:47:44.670Z,100460.25
2019-06-15T14:50:11.945Z,100450.81
2019-06-15T14:52:39.148Z,100448.91
2019-06-15T14:55:07.233Z,100454.27
2019-06-15T14:57:36.128Z,100447.77
2019-06-15T15:00:08.529Z,100453.38
2019-06-15T15:02:37.227Z,100451.43
2019-06-15T15:05:06.864Z,100453.16
2019-06-15T15:07:36.589Z,100458.91
2019-06-15T15:10:07.062Z,100458.48
2019-06-15T15:12:33.695Z,100457.33
2019-06-15T15:15:01.140Z,100465.53
2019-06-15T15:17:28.695Z,100464.30
2019-06-15T15:19:57.429Z,100454.75
2019-06-15T15:22:26.764Z,100459.58
2019-06-15T15:24:55.969Z,100461.23
2019-06-15T15:27:23.105Z,100463.59
2019-06-15T15:29:51.455Z,100454.87
2019-06-15T15:32:27.431Z,100452.61
2019-06-15T15:34:47.944Z,100457.14
2019-06-15T15:37:15.927Z,100455.69
2019-06-15T15:39:43.244Z,100455.05
2019-06-15T15:42:10.455Z,100455.75
2019-06-15T15:44:38.094Z,100450.05
2019-06-15T15:47:07.082Z,100445.50
2019-06-15T15:49:36.645Z,100450.52
2019-06-15T15:52:04.125Z,100452.44
2019-06-15T15:54:31.492Z,100449.88
2019-06-15T15:56:58.833Z,100447.89
2019-06-15T15:59:26.618Z,100449.82
2019-06-15T16:01:53.808Z,100444.96
2019-06-15T16:04:21.911Z,100448.17
2019-06-15T16:06:49.226Z,100444.67
2019-06-15T16:09:17.005Z,100440.52
2019-06-15T16:11:46.293Z,100436.09
2019-06-15T16:14:16.295Z,100433.37
2019-06-15T16:16:42.795Z,100436.18
2019-06-15T16:19:09.981Z,100429.23
2019-06-15T16:21:37.493Z,100432.12
2019-06-15T16:24:07.137Z,100437.54
2019-06-15T16:26:33.842Z,100442.02
2019-06-15T16:29:01.163Z,100442.50
2019-06-15T16:31:29.260Z,100441.23
2019-06-15T16:33:56.742Z,100438.23
2019-06-15T16:36:24.043Z,100439.45
2019-06-15T16:38:51.768Z,100439.36
2019-06-15T16:41:18.978Z,100450.00
2019-06-15T16:43:46.267Z,100448.40
2019-06-15T16:46:13.460Z,100450.86
2019-06-15T16:48:40.868Z,100442.96
2019-06-15T16:51:08.048Z,100446.95
2019-06-15T16:53:37.189Z,100437.73
2019-06-15T16:56:06.121Z,100436.91
2019-06-15T16:58:36.180Z,100437.82
2019-06-15T17:01:02.943Z,100448.69
2019-06-15T17:03:30.450Z,100444.20
2019-06-15T17:05:57.640Z,100441.56
2019-06-15T17:08:24.991Z,100439.67
2019-06-15T17:10:53.099Z,100438.98
2019-06-15T17:13:20.313Z,100441.73
2019-06-15T17:15:47.823Z,100445.48
2019-06-15T17:18:15.100Z,100439.07
2019-06-15T17:20:47.197Z,100440.04
2019-06-15T17:23:16.375Z,100437.63
2019-06-15T17:25:43.443Z,100444.99
2019-06-15T17:28:10.718Z,100440.17
2019-06-15T17:30:37.894Z,100442.91
2019-06-15T17:33:08.200Z,100446.53
2019-06-15T17:35:36.157Z,100454.95
2019-06-15T17:38:03.480Z,100456.52
2019-06-15T17:40:30.551Z,100454.94
2019-06-15T17:42:57.918Z,100450.20
2019-06-15T17:45:26.667Z,100460.67
2019-06-15T17:47:56.869Z,100461.86
2019-06-15T17:50:29.679Z,100458.83
2019-06-15T17:52:56.867Z,100460.19
2019-06-15T17:55:26.787Z,100459.23
2019-06-15T17:57:53.254Z,100453.43
2019-06-15T18:00:20.949Z,100457.56
2019-06-15T18:02:48.244Z,100463.91
2019-06-15T18:05:17.978Z,100464.26
2019-06-15T18:07:47.001Z,100460.25
2019-06-15T18:10:16.011Z,100462.64
2019-06-15T18:12:43.292Z,100458.16
2019-06-15T18:15:10.771Z,100455.69
2019-06-15T18:17:37.940Z,100452.47
2019-06-15T18:20:06.756Z,100458.13
2019-06-15T18:22:36.212Z,100449.11
2019-06-15T18:25:06.417Z,100452.92
2019-06-15T18:27:33.970Z,100455.48
2019-06-15T18:30:01.132Z,100454.27
2019-06-15T18:32:29.086Z,100448.62
2019-06-15T18:34:56.621Z,100450.46
2019-06-15T18:37:23.775Z,100455.48
2019-06-15T18:39:51.056Z,100459.88
2019-06-15T18:42:18.379Z,100462.20
2019-06-15T18:44:47.774Z,100466.59
2019-06-15T18:47:16.545Z,100465.41
2019-06-15T18:49:43.998Z,100469.61
2019-06-15T18:52:11.170Z,100465.38
2019-06-15T18:54:38.333Z,100472.30
2019-06-15T18:57:07.431Z,100474.42
2019-06-15T18:59:36.625Z,100473.95
2019-06-15T19:02:06.533Z,100474.59
2019-06-15T19:04:33.281Z,100483.38
2019-06-15T19:07:00.911Z,100481.83
2019-06-15T19:09:27.989Z,100479.02
2019-06-15T19:11:56.612Z,100480.80
2019-06-15T19:14:23.945Z,100482.23
2019-06-15T19:16:51.511Z,100478.11
2019-06-15T19:19:18.821Z,100489.27
2019-06-15T19:21:46.258Z,100492.50
2019-06-15T19:24:16.574Z,100491.06
2019-06-15T19:26:43.004Z,100491.54
2019-06-15T19:29:10.877Z,100489.78
2019-06-15T19:31:38.099Z,100489.09
2019-06-15T19:34:06.785Z,100492.91
2019-06-15T19:36:36.494Z,100492.31
2019-06-15T19:39:06.261Z,100498.41
2019-06-15T19:41:33.505Z,100504.50
2019-06-15T19:44:00.716Z,100504.75
2019-06-15T19:46:27.905Z,100496.81
2019-06-15T19:48:56.033Z,100503.04
2019-06-15T19:51:28.528Z,100506.52
2019-06-15T19:53:53.039Z,100505.44
2019-06-15T19:56:20.267Z,100511.34
2019-06-15T19:58:47.480Z,100508.14
2019-06-15T20:01:16.765Z,100513.27
2019-06-15T20:03:46.333Z,100516.48
2019-06-15T20:06:13.397Z,100523.81
2019-06-15T20:08:40.717Z,100539.11
2019-06-15T20:11:08.483Z,100544.86
2019-06-15T20:13:37.077Z,100540.06
2019-06-15T20:16:05.264Z,100548.63
2019-06-15T20:18:33.654Z,100544.79
2019-06-15T20:21:00.728Z,100548.67
2019-06-15T20:23:28.886Z,100559.09
2019-06-15T20:25:56.339Z,100571.83
2019-06-15T20:28:23.552Z,100578.30
2019-06-15T20:30:50.725Z,100581.83
2019-06-15T20:33:17.956Z,100583.88
2019-06-15T20:35:47.160Z,100597.98
2019-06-15T20:38:16.082Z,100596.54
2019-06-15T20:40:43.523Z,100604.09
2019-06-15T20:43:10.634Z,100604.81
2019-06-15T20:45:38.178Z,100615.70
2019-06-15T20:48:06.776Z,100610.53
2019-06-15T20:50:36.282Z,100613.89
2019-06-15T20:53:05.851Z,100614.05
2019-06-15T20:55:33.148Z,100614.70
2019-06-15T20:58:00.487Z,100615.74
2019-06-15T21:00:27.639Z,100613.76
2019-06-15T21:02:56.323Z,100613.27
2019-06-15T21:05:34.819Z,100600.91
2019-06-15T21:07:52.908Z,100597.75
2019-06-15T21:10:20.144Z,100594.59
2019-06-15T21:12:47.703Z,100592.25
2019-06-15T21:15:15.347Z,100594.45
2019-06-15T21:17:42.572Z,100599.47
2019-06-15T21:20:10.133Z,100599.96
2019-06-15T21:22:37.672Z,100604.32
2019-06-15T21:25:06.833Z,100606.83
2019-06-15T21:27:36.658Z,100611.31
2019-06-15T21:30:06.806Z,100614.34
2019-06-15T21:32:33.805Z,100624.68
2019-06-15T21:35:01.314Z,100627.55
2019-06-15T21:37:29.497Z,100631.70
2019-06-15T21:39:56.872Z,100646.06
2019-06-15T21:42:26.470Z,100653.39
2019-06-15T21:44:53.166Z,100653.20
2019-06-15T21:47:20.574Z,100660.02
2019-06-15T21:49:47.754Z,100657.20
2019-06-15T21:52:16.667Z,100667.53
2019-06-15T21:54:43.984Z,100667.35
2019-06-15T21:57:11.683Z,100674.52
2019-06-15T21:59:38.848Z,100685.52
2019-06-15T22:02:07.067Z,100690.87
2019-06-15T22:04:36.643Z,100699.38
2019-06-15T22:07:06.271Z,100696.52
2019-06-15T22:09:32.833Z,100687.83
2019-06-15T22:11:59.896Z,100685.66
2019-06-15T22:14:27.072Z,100685.66
2019-06-15T22:16:56.738Z,100676.48
2019-06-15T22:19:23.376Z,100675.33
2019-06-15T22:21:51.263Z,100677.17
2019-06-15T22:24:18.802Z,100673.16
2019-06-15T22:26:46.731Z,100685.20
2019-06-15T22:29:16.765Z,100686.71
2019-06-15T22:31:43.787Z,100696.61
2019-06-15T22:34:10.961Z,100703.27
2019-06-15T22:36:38.259Z,100707.45
2019-06-15T22:39:06.443Z,100708.95
2019-06-15T22:41:36.089Z,100711.61
2019-06-15T22:44:03.104Z,100705.93
2019-06-15T22:46:30.523Z,100709.43
2019-06-15T22:48:57.752Z,100702.73
2019-06-15T22:51:27.325Z,100702.56
2019-06-15T22:53:56.380Z,100707.05
2019-06-15T22:56:23.113Z,100701.23
2019-06-15T22:58:50.206Z,100705.23
2019-06-15T23:01:17.411Z,100707.05
2019-06-15T23:03:46.588Z,100713.39
2019-06-15T23:06:15.971Z,100718.73
2019-06-15T23:08:43.224Z,100718.24
2019-06-15T23:11:10.475Z,100721.22
2019-06-15T23:13:37.669Z,100722.55
2019-06-15T23:16:04.945Z,100727.55
2019-06-15T23:18:32.422Z,100729.22
2019-06-15T23:20:59.601Z,100737.23
2019-06-15T23:23:27.211Z,100739.08
2019-06-15T23:25:56.647Z,100736.72
2019-06-15T23:28:23.730Z,100738.72
2019-06-15T23:30:51.234Z,100744.75
2019-06-15T23:33:18.715Z,100739.73
2019-06-15T23:35:52.047Z,100743.22
2019-06-15T23:38:19.646Z,100741.08
2019-06-15T23:40:47.556Z,100739.08
2019-06-15T23:43:16.745Z,100746.08
2019-06-15T23:45:43.955Z,100745.91
2019-06-15T23:48:11.127Z,100744.63
2019-06-15T23:50:38.418Z,100745.28
2019-06-15T23:53:05.830Z,100749.46
2019-06-15T23:55:33.093Z,100745.45
2019-06-15T23:58:00.356Z,100743.80
